sensor_id;sensor_type;location;lat;lon;timestamp;pressure;altitude;pressure_sealevel;temperature;humidity
21359;BME280;13506;50.852;20.632;2023-07-28T00:00:09;97541.06;;;15.30;71.43
21359;BME280;13506;50.852;20.632;2023-07-28T00:02:59;97535.63;;;15.32;71.31
21359;BME280;13506;50.852;20.632;2023-07-28T00:05:28;97535.41;;;15.25;71.36
21359;BME280;13506;50.852;20.632;2023-07-28T00:07:56;97529.59;;;15.05;72.18
21359;BME280;13506;50.852;20.632;2023-07-28T00:10:24;97541.59;;;15.08;72.31
21359;BME280;13506;50.852;20.632;2023-07-28T00:12:52;97548.13;;;14.87;73.73
21359;BME280;13506;50.852;20.632;2023-07-28T00:15:22;97543.16;;;14.84;73.57
21359;BME280;13506;50.852;20.632;2023-07-28T00:17:50;97540.41;;;14.94;72.37
21359;BME280;13506;50.852;20.632;2023-07-28T00:20:18;97529.22;;;14.92;70.51
21359;BME280;13506;50.852;20.632;2023-07-28T00:22:46;97527.28;;;15.02;71.42
21359;BME280;13506;50.852;20.632;2023-07-28T00:25:14;97517.06;;;15.07;68.57
21359;BME280;13506;50.852;20.632;2023-07-28T00:27:42;97522.53;;;15.14;69.57
21359;BME280;13506;50.852;20.632;2023-07-28T00:30:12;97524.69;;;15.18;67.13
21359;BME280;13506;50.852;20.632;2023-07-28T00:32:41;97519.91;;;15.22;65.69
21359;BME280;13506;50.852;20.632;2023-07-28T00:35:10;97519.44;;;15.27;65.56
21359;BME280;13506;50.852;20.632;2023-07-28T00:37:38;97510.53;;;15.19;65.55
21359;BME280;13506;50.852;20.632;2023-07-28T00:40:08;97501.53;;;15.30;65.20
21359;BME280;13506;50.852;20.632;2023-07-28T00:42:35;97506.25;;;15.27;65.02
21359;BME280;13506;50.852;20.632;2023-07-28T00:45:05;97512.56;;;15.34;64.39
21359;BME280;13506;50.852;20.632;2023-07-28T00:47:33;97507.63;;;15.31;64.68
21359;BME280;13506;50.852;20.632;2023-07-28T00:50:03;97514.56;;;15.48;64.27
21359;BME280;13506;50.852;20.632;2023-07-28T00:52:32;97503.53;;;15.45;64.32
21359;BME280;13506;50.852;20.632;2023-07-28T00:55:00;97505.97;;;15.46;64.68
21359;BME280;13506;50.852;20.632;2023-07-28T00:57:29;97504.66;;;15.50;64.75
21359;BME280;13506;50.852;20.632;2023-07-28T00:59:57;97506.34;;;15.51;64.64
21359;BME280;13506;50.852;20.632;2023-07-28T01:02:25;97500.72;;;15.46;64.94
21359;BME280;13506;50.852;20.632;2023-07-28T01:04:53;97498.59;;;15.50;64.50
21359;BME280;13506;50.852;20.632;2023-07-28T01:07:29;97485.56;;;15.56;64.11
21359;BME280;13506;50.852;20.632;2023-07-28T01:10:05;97485.56;;;15.56;64.59
21359;BME280;13506;50.852;20.632;2023-07-28T01:12:34;97492.16;;;15.60;64.44
21359;BME280;13506;50.852;20.632;2023-07-28T01:15:03;97489.38;;;15.62;64.30
21359;BME280;13506;50.852;20.632;2023-07-28T01:17:31;97492.66;;;15.64;64.39
21359;BME280;13506;50.852;20.632;2023-07-28T01:19:59;97489.22;;;15.64;64.83
21359;BME280;13506;50.852;20.632;2023-07-28T01:25:32;97488.69;;;15.52;65.65
21359;BME280;13506;50.852;20.632;2023-07-28T01:28:04;97492.31;;;15.42;66.32
21359;BME280;13506;50.852;20.632;2023-07-28T01:30:32;97494.78;;;15.36;66.65
21359;BME280;13506;50.852;20.632;2023-07-28T01:33:00;97490.50;;;15.35;66.73
21359;BME280;13506;50.852;20.632;2023-07-28T01:35:28;97486.69;;;15.37;66.40
21359;BME280;13506;50.852;20.632;2023-07-28T01:37:57;97488.03;;;15.41;65.67
21359;BME280;13506;50.852;20.632;2023-07-28T01:40:25;97491.31;;;15.44;65.08
21359;BME280;13506;50.852;20.632;2023-07-28T01:42:53;97487.72;;;15.45;64.81
21359;BME280;13506;50.852;20.632;2023-07-28T01:45:22;97489.84;;;15.49;64.80
21359;BME280;13506;50.852;20.632;2023-07-28T01:47:50;97485.75;;;15.47;65.05
21359;BME280;13506;50.852;20.632;2023-07-28T01:50:18;97488.84;;;15.42;65.54
21359;BME280;13506;50.852;20.632;2023-07-28T01:52:46;97481.59;;;15.44;64.80
21359;BME280;13506;50.852;20.632;2023-07-28T01:55:14;97463.00;;;15.46;64.82
21359;BME280;13506;50.852;20.632;2023-07-28T01:57:54;97469.56;;;15.33;65.17
21359;BME280;13506;50.852;20.632;2023-07-28T02:00:25;97480.75;;;15.35;65.23
21359;BME280;13506;50.852;20.632;2023-07-28T02:02:53;97471.41;;;15.41;65.24
21359;BME280;13506;50.852;20.632;2023-07-28T02:05:22;97473.88;;;15.42;65.20
21359;BME280;13506;50.852;20.632;2023-07-28T02:07:50;97478.63;;;15.39;65.63
21359;BME280;13506;50.852;20.632;2023-07-28T02:10:18;97483.91;;;15.39;65.69
21359;BME280;13506;50.852;20.632;2023-07-28T02:12:46;97473.22;;;15.40;65.84
21359;BME280;13506;50.852;20.632;2023-07-28T02:15:14;97480.13;;;15.41;66.16
21359;BME280;13506;50.852;20.632;2023-07-28T02:17:44;97469.72;;;15.40;66.00
21359;BME280;13506;50.852;20.632;2023-07-28T02:20:12;97470.72;;;15.39;66.21
21359;BME280;13506;50.852;20.632;2023-07-28T02:22:42;97470.72;;;15.31;66.89
21359;BME280;13506;50.852;20.632;2023-07-28T02:25:11;97474.34;;;15.30;66.30
21359;BME280;13506;50.852;20.632;2023-07-28T02:27:39;97459.81;;;15.26;67.00
21359;BME280;13506;50.852;20.632;2023-07-28T02:30:08;97468.44;;;15.36;66.33
21359;BME280;13506;50.852;20.632;2023-07-28T02:32:37;97477.75;;;15.22;67.12
21359;BME280;13506;50.852;20.632;2023-07-28T02:35:08;97483.56;;;15.42;66.41
21359;BME280;13506;50.852;20.632;2023-07-28T02:37:37;97481.13;;;15.40;66.82
21359;BME280;13506;50.852;20.632;2023-07-28T02:40:06;97484.91;;;15.46;66.23
21359;BME280;13506;50.852;20.632;2023-07-28T02:42:34;97475.84;;;15.49;66.50
21359;BME280;13506;50.852;20.632;2023-07-28T02:45:03;97466.44;;;15.46;66.34
21359;BME280;13506;50.852;20.632;2023-07-28T02:47:30;97463.00;;;15.46;66.29
21359;BME280;13506;50.852;20.632;2023-07-28T02:49:59;97465.97;;;15.51;66.17
21359;BME280;13506;50.852;20.632;2023-07-28T02:52:28;97469.75;;;15.56;65.51
21359;BME280;13506;50.852;20.632;2023-07-28T02:54:56;97481.63;;;15.60;65.68
21359;BME280;13506;50.852;20.632;2023-07-28T02:57:24;97474.22;;;15.64;65.53
21359;BME280;13506;50.852;20.632;2023-07-28T02:59:53;97477.34;;;15.59;65.88
21359;BME280;13506;50.852;20.632;2023-07-28T03:02:21;97478.16;;;15.60;65.55
21359;BME280;13506;50.852;20.632;2023-07-28T03:04:50;97481.31;;;15.64;65.61
21359;BME280;13506;50.852;20.632;2023-07-28T03:07:23;97472.69;;;15.70;65.46
21359;BME280;13506;50.852;20.632;2023-07-28T03:10:00;97462.66;;;15.73;65.45
21359;BME280;13506;50.852;20.632;2023-07-28T03:12:29;97464.13;;;15.76;65.23
21359;BME280;13506;50.852;20.632;2023-07-28T03:14:57;97467.13;;;15.81;65.49
21359;BME280;13506;50.852;20.632;2023-07-28T03:17:25;97468.09;;;15.88;65.12
21359;BME280;13506;50.852;20.632;2023-07-28T03:19:53;97474.03;;;15.90;65.09
21359;BME280;13506;50.852;20.632;2023-07-28T03:22:21;97473.53;;;15.87;64.90
21359;BME280;13506;50.852;20.632;2023-07-28T03:24:50;97471.22;;;15.92;65.09
21359;BME280;13506;50.852;20.632;2023-07-28T03:27:19;97474.69;;;15.92;65.02
21359;BME280;13506;50.852;20.632;2023-07-28T03:29:48;97474.38;;;15.87;65.43
21359;BME280;13506;50.852;20.632;2023-07-28T03:32:18;97469.09;;;15.87;65.84
21359;BME280;13506;50.852;20.632;2023-07-28T03:34:47;97466.09;;;15.90;66.05
21359;BME280;13506;50.852;20.632;2023-07-28T03:37:19;97459.84;;;15.91;66.10
21359;BME280;13506;50.852;20.632;2023-07-28T03:39:47;97458.03;;;15.83;67.33
21359;BME280;13506;50.852;20.632;2023-07-28T03:42:15;97451.28;;;15.81;67.48
21359;BME280;13506;50.852;20.632;2023-07-28T03:44:45;97449.31;;;15.83;68.49
21359;BME280;13506;50.852;20.632;2023-07-28T03:47:13;97454.09;;;15.79;69.55
21359;BME280;13506;50.852;20.632;2023-07-28T03:49:41;97446.00;;;15.81;69.93
21359;BME280;13506;50.852;20.632;2023-07-28T03:52:09;97448.31;;;15.84;70.53
21359;BME280;13506;50.852;20.632;2023-07-28T03:54:37;97455.25;;;15.85;70.78
21359;BME280;13506;50.852;20.632;2023-07-28T03:57:06;97438.09;;;15.73;72.26
21359;BME280;13506;50.852;20.632;2023-07-28T03:59:34;97432.84;;;15.73;72.19
21359;BME280;13506;50.852;20.632;2023-07-28T04:02:04;97431.88;;;15.66;72.96
21359;BME280;13506;50.852;20.632;2023-07-28T04:04:32;97425.44;;;15.52;74.54
21359;BME280;13506;50.852;20.632;2023-07-28T04:07:00;97425.09;;;15.63;73.44
21359;BME280;13506;50.852;20.632;2023-07-28T04:09:28;97425.59;;;15.58;73.66
21359;BME280;13506;50.852;20.632;2023-07-28T04:11:56;97412.56;;;15.57;73.84
21359;BME280;13506;50.852;20.632;2023-07-28T04:14:24;97410.78;;;15.66;73.48
21359;BME280;13506;50.852;20.632;2023-07-28T04:16:52;97408.44;;;15.71;73.48
21359;BME280;13506;50.852;20.632;2023-07-28T04:19:22;97407.78;;;15.69;73.01
21359;BME280;13506;50.852;20.632;2023-07-28T04:21:50;97403.47;;;15.84;72.69
21359;BME280;13506;50.852;20.632;2023-07-28T04:24:19;97391.94;;;15.93;72.29
21359;BME280;13506;50.852;20.632;2023-07-28T04:26:49;97389.97;;;15.87;72.59
21359;BME280;13506;50.852;20.632;2023-07-28T04:29:19;97391.56;;;15.96;72.34
21359;BME280;13506;50.852;20.632;2023-07-28T04:31:47;97382.81;;;16.04;71.77
21359;BME280;13506;50.852;20.632;2023-07-28T04:34:22;97386.66;;;15.93;72.86
21359;BME280;13506;50.852;20.632;2023-07-28T04:37:26;97382.50;;;15.91;73.12
21359;BME280;13506;50.852;20.632;2023-07-28T04:40:00;97380.78;;;15.58;75.52
21359;BME280;13506;50.852;20.632;2023-07-28T04:42:34;97382.44;;;15.68;74.63
21359;BME280;13506;50.852;20.632;2023-07-28T04:45:04;97380.09;;;15.73;74.10
21359;BME280;13506;50.852;20.632;2023-07-28T04:47:33;97368.38;;;15.75;74.23
21359;BME280;13506;50.852;20.632;2023-07-28T04:50:03;97363.09;;;15.75;74.89
21359;BME280;13506;50.852;20.632;2023-07-28T04:52:54;97375.31;;;15.76;74.85
21359;BME280;13506;50.852;20.632;2023-07-28T04:55:42;97369.25;;;15.59;74.74
21359;BME280;13506;50.852;20.632;2023-07-28T04:58:10;97365.75;;;15.59;74.30
21359;BME280;13506;50.852;20.632;2023-07-28T05:00:50;97369.91;;;15.37;74.31
21359;BME280;13506;50.852;20.632;2023-07-28T05:03:18;97371.03;;;15.18;75.26
21359;BME280;13506;50.852;20.632;2023-07-28T05:05:54;97372.06;;;15.33;75.32
21359;BME280;13506;50.852;20.632;2023-07-28T05:08:23;97368.91;;;15.46;74.55
21359;BME280;13506;50.852;20.632;2023-07-28T05:10:52;97364.97;;;15.50;72.77
21359;BME280;13506;50.852;20.632;2023-07-28T05:13:20;97372.38;;;15.55;72.43
21359;BME280;13506;50.852;20.632;2023-07-28T05:15:54;97356.25;;;15.33;71.26
21359;BME280;13506;50.852;20.632;2023-07-28T05:18:54;97364.28;;;15.56;71.80
21359;BME280;13506;50.852;20.632;2023-07-28T05:21:47;97366.75;;;15.25;74.94
21359;BME280;13506;50.852;20.632;2023-07-28T05:24:18;97357.56;;;15.37;73.73
21359;BME280;13506;50.852;20.632;2023-07-28T05:26:46;97356.09;;;15.43;73.85
21359;BME280;13506;50.852;20.632;2023-07-28T05:29:15;97361.31;;;15.27;74.80
21359;BME280;13506;50.852;20.632;2023-07-28T05:31:45;97357.41;;;15.31;74.56
21359;BME280;13506;50.852;20.632;2023-07-28T05:34:22;97364.31;;;15.48;73.47
21359;BME280;13506;50.852;20.632;2023-07-28T05:36:51;97368.59;;;15.49;73.64
21359;BME280;13506;50.852;20.632;2023-07-28T05:39:19;97359.03;;;15.56;73.32
21359;BME280;13506;50.852;20.632;2023-07-28T05:41:48;97361.78;;;15.71;72.37
21359;BME280;13506;50.852;20.632;2023-07-28T05:44:16;97367.88;;;15.72;71.78
21359;BME280;13506;50.852;20.632;2023-07-28T05:46:44;97356.66;;;15.78;71.09
21359;BME280;13506;50.852;20.632;2023-07-28T05:49:16;97355.72;;;15.71;71.63
21359;BME280;13506;50.852;20.632;2023-07-28T05:51:44;97361.00;;;15.62;72.29
21359;BME280;13506;50.852;20.632;2023-07-28T05:54:16;97352.06;;;15.72;72.00
21359;BME280;13506;50.852;20.632;2023-07-28T05:56:45;97349.47;;;15.55;71.88
21359;BME280;13506;50.852;20.632;2023-07-28T05:59:13;97356.75;;;15.45;73.03
21359;BME280;13506;50.852;20.632;2023-07-28T06:01:42;97355.22;;;15.67;71.55
21359;BME280;13506;50.852;20.632;2023-07-28T06:04:34;97347.50;;;15.66;71.43
21359;BME280;13506;50.852;20.632;2023-07-28T06:07:05;97349.59;;;15.78;71.46
21359;BME280;13506;50.852;20.632;2023-07-28T06:09:35;97346.28;;;15.85;70.32
21359;BME280;13506;50.852;20.632;2023-07-28T06:12:05;97332.06;;;15.94;70.33
21359;BME280;13506;50.852;20.632;2023-07-28T06:14:33;97339.59;;;16.05;69.49
21359;BME280;13506;50.852;20.632;2023-07-28T06:17:03;97328.41;;;16.03;69.49
21359;BME280;13506;50.852;20.632;2023-07-28T06:19:33;97330.53;;;16.08;69.62
21359;BME280;13506;50.852;20.632;2023-07-28T06:22:02;97343.88;;;16.14;69.17
21359;BME280;13506;50.852;20.632;2023-07-28T06:24:32;97338.75;;;16.21;68.87
21359;BME280;13506;50.852;20.632;2023-07-28T06:27:04;97328.66;;;16.25;68.72
21359;BME280;13506;50.852;20.632;2023-07-28T06:29:37;97333.81;;;16.10;69.18
21359;BME280;13506;50.852;20.632;2023-07-28T06:32:05;97332.97;;;16.26;69.07
21359;BME280;13506;50.852;20.632;2023-07-28T06:34:34;97337.28;;;16.10;69.80
21359;BME280;13506;50.852;20.632;2023-07-28T06:37:02;97341.25;;;16.14;69.38
21359;BME280;13506;50.852;20.632;2023-07-28T06:39:31;97346.28;;;16.32;69.41
21359;BME280;13506;50.852;20.632;2023-07-28T06:41:59;97352.50;;;16.39;69.30
21359;BME280;13506;50.852;20.632;2023-07-28T06:44:29;97354.25;;;16.55;68.37
21359;BME280;13506;50.852;20.632;2023-07-28T06:46:57;97358.38;;;16.58;67.93
21359;BME280;13506;50.852;20.632;2023-07-28T06:49:30;97356.03;;;16.63;67.87
21359;BME280;13506;50.852;20.632;2023-07-28T06:52:03;97353.97;;;16.73;67.50
21359;BME280;13506;50.852;20.632;2023-07-28T06:54:34;97361.59;;;16.68;67.65
21359;BME280;13506;50.852;20.632;2023-07-28T06:57:03;97360.38;;;16.79;67.15
21359;BME280;13506;50.852;20.632;2023-07-28T06:59:34;97350.31;;;16.82;67.26
21359;BME280;13506;50.852;20.632;2023-07-28T07:02:02;97347.41;;;16.92;67.30
21359;BME280;13506;50.852;20.632;2023-07-28T07:04:30;97352.00;;;16.98;67.34
21359;BME280;13506;50.852;20.632;2023-07-28T07:06:58;97354.28;;;17.01;67.30
21359;BME280;13506;50.852;20.632;2023-07-28T07:09:26;97354.44;;;17.08;67.04
21359;BME280;13506;50.852;20.632;2023-07-28T07:11:55;97364.16;;;16.84;68.10
21359;BME280;13506;50.852;20.632;2023-07-28T07:14:23;97364.63;;;17.11;67.78
21359;BME280;13506;50.852;20.632;2023-07-28T07:16:52;97361.94;;;17.19;68.24
21359;BME280;13506;50.852;20.632;2023-07-28T07:19:20;97367.16;;;17.28;68.13
21359;BME280;13506;50.852;20.632;2023-07-28T07:21:49;97368.44;;;17.32;68.34
21359;BME280;13506;50.852;20.632;2023-07-28T07:24:17;97368.19;;;17.27;68.05
21359;BME280;13506;50.852;20.632;2023-07-28T07:26:45;97358.91;;;17.31;68.68
21359;BME280;13506;50.852;20.632;2023-07-28T07:29:13;97368.63;;;17.30;69.24
21359;BME280;13506;50.852;20.632;2023-07-28T07:31:42;97367.47;;;17.33;69.88
21359;BME280;13506;50.852;20.632;2023-07-28T07:34:11;97368.00;;;17.43;70.41
21359;BME280;13506;50.852;20.632;2023-07-28T07:36:39;97370.78;;;17.50;70.28
21359;BME280;13506;50.852;20.632;2023-07-28T07:39:07;97372.34;;;17.59;70.19
21359;BME280;13506;50.852;20.632;2023-07-28T07:41:35;97382.31;;;17.72;70.93
21359;BME280;13506;50.852;20.632;2023-07-28T07:44:03;97381.22;;;17.81;70.29
21359;BME280;13506;50.852;20.632;2023-07-28T07:46:32;97385.94;;;17.85;71.04
21359;BME280;13506;50.852;20.632;2023-07-28T07:48:59;97387.06;;;17.91;69.63
21359;BME280;13506;50.852;20.632;2023-07-28T07:51:29;97388.75;;;17.92;69.70
21359;BME280;13506;50.852;20.632;2023-07-28T07:53:57;97374.50;;;17.93;70.09
21359;BME280;13506;50.852;20.632;2023-07-28T07:56:25;97373.50;;;17.94;70.28
21359;BME280;13506;50.852;20.632;2023-07-28T07:58:54;97369.72;;;17.89;69.82
21359;BME280;13506;50.852;20.632;2023-07-28T08:01:22;97376.47;;;17.76;69.55
21359;BME280;13506;50.852;20.632;2023-07-28T08:03:50;97382.22;;;17.80;69.24
21359;BME280;13506;50.852;20.632;2023-07-28T08:06:18;97392.50;;;17.75;69.45
21359;BME280;13506;50.852;20.632;2023-07-28T08:08:47;97388.59;;;17.71;70.26
21359;BME280;13506;50.852;20.632;2023-07-28T08:11:17;97376.53;;;17.68;71.04
21359;BME280;13506;50.852;20.632;2023-07-28T08:13:45;97393.59;;;17.65;70.52
21359;BME280;13506;50.852;20.632;2023-07-28T08:16:15;97380.94;;;17.61;71.22
21359;BME280;13506;50.852;20.632;2023-07-28T08:18:43;97389.75;;;17.53;72.45
21359;BME280;13506;50.852;20.632;2023-07-28T08:21:11;97387.47;;;17.50;72.66
21359;BME280;13506;50.852;20.632;2023-07-28T08:23:39;97377.59;;;17.44;73.97
21359;BME280;13506;50.852;20.632;2023-07-28T08:26:08;97385.81;;;17.49;73.97
21359;BME280;13506;50.852;20.632;2023-07-28T08:28:36;97381.44;;;17.41;75.63
21359;BME280;13506;50.852;20.632;2023-07-28T08:31:05;97380.25;;;17.44;75.66
21359;BME280;13506;50.852;20.632;2023-07-28T08:33:33;97376.59;;;17.45;76.88
21359;BME280;13506;50.852;20.632;2023-07-28T08:36:01;97376.59;;;17.45;77.99
21359;BME280;13506;50.852;20.632;2023-07-28T08:38:29;97370.97;;;17.48;78.71
21359;BME280;13506;50.852;20.632;2023-07-28T08:40:57;97375.72;;;17.53;81.09
21359;BME280;13506;50.852;20.632;2023-07-28T08:43:27;97380.75;;;17.62;81.32
21359;BME280;13506;50.852;20.632;2023-07-28T08:45:55;97376.72;;;17.67;81.90
21359;BME280;13506;50.852;20.632;2023-07-28T08:48:24;97366.13;;;17.67;81.38
21359;BME280;13506;50.852;20.632;2023-07-28T08:50:53;97379.84;;;17.70;81.78
21359;BME280;13506;50.852;20.632;2023-07-28T08:53:21;97376.63;;;17.75;83.27
21359;BME280;13506;50.852;20.632;2023-07-28T08:55:49;97390.34;;;17.78;84.08
21359;BME280;13506;50.852;20.632;2023-07-28T08:58:20;97386.88;;;17.78;83.07
21359;BME280;13506;50.852;20.632;2023-07-28T09:00:50;97388.31;;;17.65;87.59
21359;BME280;13506;50.852;20.632;2023-07-28T09:03:19;97394.50;;;17.73;86.79
21359;BME280;13506;50.852;20.632;2023-07-28T09:05:47;97388.25;;;17.74;88.68
21359;BME280;13506;50.852;20.632;2023-07-28T09:08:15;97375.28;;;17.79;88.24
21359;BME280;13506;50.852;20.632;2023-07-28T09:10:44;97388.59;;;17.85;90.04
21359;BME280;13506;50.852;20.632;2023-07-28T09:13:13;97381.22;;;17.81;89.13
21359;BME280;13506;50.852;20.632;2023-07-28T09:15:41;97387.69;;;17.78;91.39
21359;BME280;13506;50.852;20.632;2023-07-28T09:18:11;97382.22;;;17.80;91.77
21359;BME280;13506;50.852;20.632;2023-07-28T09:20:41;97382.88;;;17.82;92.80
21359;BME280;13506;50.852;20.632;2023-07-28T09:23:09;97389.06;;;17.89;92.06
21359;BME280;13506;50.852;20.632;2023-07-28T09:25:38;97383.59;;;17.91;92.50
21359;BME280;13506;50.852;20.632;2023-07-28T09:28:06;97388.50;;;17.79;91.39
21359;BME280;13506;50.852;20.632;2023-07-28T09:30:46;97386.88;;;17.78;93.14
21359;BME280;13506;50.852;20.632;2023-07-28T09:33:29;97389.53;;;17.78;93.64
21359;BME280;13506;50.852;20.632;2023-07-28T09:36:06;97388.88;;;17.76;93.84
21359;BME280;13506;50.852;20.632;2023-07-28T09:38:37;97397.81;;;17.75;94.31
21359;BME280;13506;50.852;20.632;2023-07-28T09:41:09;97379.75;;;17.78;96.36
21359;BME280;13506;50.852;20.632;2023-07-28T09:43:38;97372.56;;;17.87;97.64
21359;BME280;13506;50.852;20.632;2023-07-28T09:46:08;97382.09;;;17.96;97.31
21359;BME280;13506;50.852;20.632;2023-07-28T09:48:39;97386.00;;;18.00;95.73
21359;BME280;13506;50.852;20.632;2023-07-28T09:51:14;97383.72;;;17.97;95.64
21359;BME280;13506;50.852;20.632;2023-07-28T09:53:48;97375.41;;;18.00;96.03
21359;BME280;13506;50.852;20.632;2023-07-28T09:56:17;97383.34;;;18.00;96.58
21359;BME280;13506;50.852;20.632;2023-07-28T09:58:50;97381.63;;;17.93;97.55
21359;BME280;13506;50.852;20.632;2023-07-28T10:01:19;97383.47;;;17.92;98.55
21359;BME280;13506;50.852;20.632;2023-07-28T10:03:49;97382.22;;;17.80;99.23
21359;BME280;13506;50.852;20.632;2023-07-28T10:06:19;97388.25;;;17.74;99.81
21359;BME280;13506;50.852;20.632;2023-07-28T10:08:49;97375.25;;;17.64;100.00
21359;BME280;13506;50.852;20.632;2023-07-28T10:11:19;97381.41;;;17.64;100.00
21359;BME280;13506;50.852;20.632;2023-07-28T10:13:50;97376.72;;;17.67;100.00
21359;BME280;13506;50.852;20.632;2023-07-28T10:16:19;97373.25;;;17.66;100.00
21359;BME280;13506;50.852;20.632;2023-07-28T10:18:54;97380.75;;;17.62;100.00
21359;BME280;13506;50.852;20.632;2023-07-28T10:21:26;97378.44;;;17.59;100.00
21359;BME280;13506;50.852;20.632;2023-07-28T10:23:56;97386.38;;;17.59;100.00
21359;BME280;13506;50.852;20.632;2023-07-28T10:26:37;97380.13;;;17.60;100.00
21359;BME280;13506;50.852;20.632;2023-07-28T10:29:12;97391.34;;;17.62;100.00
21359;BME280;13506;50.852;20.632;2023-07-28T10:31:54;97378.44;;;17.59;100.00
21359;BME280;13506;50.852;20.632;2023-07-28T10:34:23;97389.41;;;17.56;100.00
21359;BME280;13506;50.852;20.632;2023-07-28T10:36:59;97384.63;;;17.52;100.00
21359;BME280;13506;50.852;20.632;2023-07-28T10:39:27;97375.44;;;17.48;100.00
21359;BME280;13506;50.852;20.632;2023-07-28T10:42:02;97386.34;;;17.44;100.00
21359;BME280;13506;50.852;20.632;2023-07-28T10:44:31;97392.81;;;17.42;100.00
21359;BME280;13506;50.852;20.632;2023-07-28T10:47:00;97389.16;;;17.43;100.00
21359;BME280;13506;50.852;20.632;2023-07-28T10:49:29;97379.94;;;17.39;100.00
21359;BME280;13506;50.852;20.632;2023-07-28T10:51:57;97380.16;;;17.37;100.00
21359;BME280;13506;50.852;20.632;2023-07-28T10:54:26;97376.84;;;17.35;100.00
21359;BME280;13506;50.852;20.632;2023-07-28T10:56:54;97372.75;;;17.33;100.00
21359;BME280;13506;50.852;20.632;2023-07-28T10:59:22;97380.31;;;17.36;100.00
21359;BME280;13506;50.852;20.632;2023-07-28T11:01:50;97380.97;;;17.38;100.00
21359;BME280;13506;50.852;20.632;2023-07-28T11:04:21;97391.88;;;17.35;100.00
21359;BME280;13506;50.852;20.632;2023-07-28T11:06:51;97397.16;;;17.35;100.00
21359;BME280;13506;50.852;20.632;2023-07-28T11:09:21;97391.88;;;17.35;100.00
21359;BME280;13506;50.852;20.632;2023-07-28T11:11:50;97387.59;;;17.34;100.00
21359;BME280;13506;50.852;20.632;2023-07-28T11:14:19;97380.03;;;17.31;100.00
21359;BME280;13506;50.852;20.632;2023-07-28T11:16:47;97387.66;;;17.26;100.00
21359;BME280;13506;50.852;20.632;2023-07-28T11:19:16;97385.38;;;17.22;100.00
21359;BME280;13506;50.852;20.632;2023-07-28T11:21:52;97390.47;;;17.24;100.00
21359;BME280;13506;50.852;20.632;2023-07-28T11:24:21;97393.31;;;17.22;100.00
21359;BME280;13506;50.852;20.632;2023-07-28T11:26:50;97397.41;;;17.25;100.00
21359;BME280;13506;50.852;20.632;2023-07-28T11:29:19;97398.88;;;17.28;100.00
21359;BME280;13506;50.852;20.632;2023-07-28T11:31:48;97407.19;;;17.24;100.00
21359;BME280;13506;50.852;20.632;2023-07-28T11:34:16;97403.91;;;17.22;100.00
21359;BME280;13506;50.852;20.632;2023-07-28T11:36:45;97403.47;;;17.34;100.00
21359;BME280;13506;50.852;20.632;2023-07-28T11:39:15;97394.47;;;17.43;100.00
21359;BME280;13506;50.852;20.632;2023-07-28T11:41:44;97402.16;;;17.53;100.00
21359;BME280;13506;50.852;20.632;2023-07-28T11:44:14;97403.38;;;17.65;100.00
21359;BME280;13506;50.852;20.632;2023-07-28T11:46:43;97395.88;;;17.69;100.00
21359;BME280;13506;50.852;20.632;2023-07-28T11:49:13;97401.47;;;17.74;100.00
21359;BME280;13506;50.852;20.632;2023-07-28T11:51:43;97411.88;;;17.75;100.00
21359;BME280;13506;50.852;20.632;2023-07-28T11:54:14;97408.69;;;17.80;100.00
21359;BME280;13506;50.852;20.632;2023-07-28T11:56:42;97394.81;;;17.78;100.00
21359;BME280;13506;50.852;20.632;2023-07-28T11:59:11;97399.00;;;17.87;100.00
21359;BME280;13506;50.852;20.632;2023-07-28T12:01:52;97397.66;;;17.91;100.00
21359;BME280;13506;50.852;20.632;2023-07-28T12:04:22;97386.59;;;17.88;100.00
21359;BME280;13506;50.852;20.632;2023-07-28T12:07:02;97404.13;;;17.89;100.00
21359;BME280;13506;50.852;20.632;2023-07-28T12:09:47;97389.56;;;17.93;100.00
21359;BME280;13506;50.852;20.632;2023-07-28T12:12:16;97394.03;;;17.92;100.00
21359;BME280;13506;50.852;20.632;2023-07-28T12:14:45;97394.84;;;17.93;100.00
21359;BME280;13506;50.852;20.632;2023-07-28T12:17:14;97394.13;;;17.99;100.00
21359;BME280;13506;50.852;20.632;2023-07-28T12:19:57;97394.94;;;17.99;100.00
21359;BME280;13506;50.852;20.632;2023-07-28T12:22:26;97390.56;;;18.07;100.00
21359;BME280;13506;50.852;20.632;2023-07-28T12:24:56;97390.38;;;18.08;100.00
21359;BME280;13506;50.852;20.632;2023-07-28T12:27:23;97384.81;;;18.18;100.00
21359;BME280;13506;50.852;20.632;2023-07-28T12:29:53;97391.66;;;18.27;100.00
21359;BME280;13506;50.852;20.632;2023-07-28T12:32:21;97393.84;;;18.38;100.00
21359;BME280;13506;50.852;20.632;2023-07-28T12:34:49;97392.44;;;18.57;100.00
21359;BME280;13506;50.852;20.632;2023-07-28T12:37:18;97386.59;;;18.77;100.00
21359;BME280;13506;50.852;20.632;2023-07-28T12:39:48;97382.63;;;18.88;100.00
21359;BME280;13506;50.852;20.632;2023-07-28T12:42:18;97395.38;;;18.99;100.00
21359;BME280;13506;50.852;20.632;2023-07-28T12:44:47;97395.94;;;19.16;100.00
21359;BME280;13506;50.852;20.632;2023-07-28T12:47:17;97387.69;;;19.25;100.00
21359;BME280;13506;50.852;20.632;2023-07-28T12:49:46;97387.97;;;19.37;100.00
21359;BME280;13506;50.852;20.632;2023-07-28T12:52:14;97392.88;;;19.55;100.00
21359;BME280;13506;50.852;20.632;2023-07-28T12:54:42;97388.91;;;19.73;100.00
21359;BME280;13506;50.852;20.632;2023-07-28T12:57:11;97387.59;;;19.90;100.00
21359;BME280;13506;50.852;20.632;2023-07-28T12:59:40;97391.72;;;19.99;99.35
21359;BME280;13506;50.852;20.632;2023-07-28T13:02:08;97397.13;;;20.13;99.07
21359;BME280;13506;50.852;20.632;2023-07-28T13:04:36;97395.13;;;20.21;98.02